createdAt,value
2018-06-01T18:10:47.157Z,9.03
2018-06-01T18:13:14.763Z,8.55
2018-06-01T18:15:42.538Z,9.18
2018-06-01T18:18:10.185Z,7.80
2018-06-01T18:20:37.821Z,8.30
2018-06-01T18:23:06.193Z,8.05
2018-06-01T18:25:34.542Z,7.18
2018-06-01T18:28:02.138Z,8.70
2018-06-01T18:30:30.486Z,8.45
2018-06-01T18:32:58.103Z,8.68
2018-06-01T18:35:25.668Z,7.05
2018-06-01T18:37:53.257Z,6.68
2018-06-01T18:40:20.828Z,7.20
2018-06-01T18:42:48.426Z,7.57
2018-06-01T18:45:16.012Z,7.65
2018-06-01T18:47:43.649Z,7.53
2018-06-01T18:50:11.226Z,7.90
2018-06-01T18:52:38.790Z,8.48
2018-06-01T18:55:06.401Z,8.82
2018-06-01T18:57:33.981Z,8.45
2018-06-01T19:00:02.445Z,8.60
2018-06-01T19:02:30.793Z,10.25
2018-06-01T19:04:58.393Z,9.48
2018-06-01T19:07:26.750Z,9.40
2018-06-01T19:09:54.425Z,11.32
2018-06-01T19:12:22.001Z,11.43
2018-06-01T19:14:50.388Z,11.85
2018-06-01T19:17:18.742Z,11.02
2018-06-01T19:19:46.355Z,12.90
2018-06-01T19:22:13.979Z,12.40
2018-06-01T19:24:42.461Z,12.63
2018-06-01T19:27:10.828Z,12.18
2018-06-01T19:29:39.213Z,13.65
2018-06-01T19:32:06.878Z,13.00
2018-06-01T19:34:34.510Z,8.80
2018-06-01T19:37:02.968Z,6.97
2018-06-01T19:39:30.563Z,6.15
2018-06-01T19:41:58.147Z,7.32
2018-06-01T19:44:26.546Z,8.60
2018-06-01T19:46:54.177Z,6.82
2018-06-01T19:49:21.896Z,7.72
2018-06-01T19:51:49.492Z,8.70
2018-06-01T19:54:17.145Z,9.88
2018-06-01T19:56:44.725Z,10.85
2018-06-01T19:59:12.349Z,11.05
2018-06-01T20:01:40.002Z,11.10
2018-06-01T20:04:07.714Z,9.70
2018-06-01T20:06:35.303Z,9.40
2018-06-01T20:09:02.905Z,8.55
2018-06-01T20:11:30.520Z,10.00
2018-06-01T20:13:58.107Z,10.73
2018-06-01T20:16:25.828Z,11.10
2018-06-01T20:18:54.200Z,10.48
2018-06-01T20:21:22.562Z,10.55
2018-06-01T20:23:50.222Z,10.98
2018-06-01T20:26:17.828Z,12.88
2018-06-01T20:28:45.462Z,10.35
2018-06-01T20:31:13.927Z,10.98
2018-06-01T20:33:41.613Z,10.15
2018-06-01T20:36:09.987Z,8.65
2018-06-01T20:38:38.350Z,10.98
2018-06-01T20:41:06.725Z,11.48
2018-06-01T20:43:34.344Z,9.95
2018-06-01T20:46:01.994Z,10.98
2018-06-01T20:48:29.769Z,10.80
2018-06-01T20:50:57.382Z,11.20
2018-06-01T20:53:25.740Z,9.55
2018-06-01T20:55:53.357Z,10.10
2018-06-01T20:58:20.942Z,11.05
2018-06-01T21:00:48.550Z,11.10
2018-06-01T21:03:16.900Z,10.80
2018-06-01T21:05:44.500Z,9.68
2018-06-01T21:08:12.182Z,11.63
2018-06-01T21:10:39.883Z,10.77
2018-06-01T21:13:08.264Z,10.68
2018-06-01T21:15:39.373Z,11.18
2018-06-01T21:18:06.954Z,11.10
2018-06-01T21:20:34.543Z,10.95
2018-06-01T21:23:02.114Z,13.57
2018-06-01T21:25:30.494Z,11.55
2018-06-01T21:27:58.824Z,11.30
2018-06-01T21:30:26.386Z,11.48
2018-06-01T21:32:54.000Z,14.57
2018-06-01T21:35:21.560Z,10.23
2018-06-01T21:37:49.164Z,9.82
2018-06-01T21:40:16.722Z,9.27
2018-06-01T21:42:44.305Z,9.02
2018-06-01T21:45:11.881Z,8.35
2018-06-01T21:47:40.230Z,8.50
2018-06-01T21:50:07.795Z,8.70
2018-06-01T21:52:35.381Z,8.65
2018-06-01T21:55:03.696Z,7.62
2018-06-01T21:57:31.259Z,8.30
2018-06-01T21:59:58.807Z,8.75
2018-06-01T22:02:26.399Z,8.95
2018-06-01T22:04:53.952Z,8.88
2018-06-01T22:07:21.548Z,9.88
2018-06-01T22:09:49.110Z,9.30
2018-06-01T22:12:17.454Z,9.52
2018-06-01T22:14:45.039Z,9.77
2018-06-01T22:17:12.626Z,9.20
2018-06-01T22:19:40.201Z,10.15
2018-06-01T22:22:07.783Z,9.20
2018-06-01T22:24:35.341Z,8.55
2018-06-01T22:27:02.967Z,10.20
2018-06-01T22:29:30.542Z,10.77
2018-06-01T22:31:58.137Z,10.95
2018-06-01T22:34:26.458Z,11.60
2018-06-01T22:36:54.811Z,11.07
2018-06-01T22:39:22.366Z,11.40
2018-06-01T22:41:49.959Z,13.60
2018-06-01T22:44:18.293Z,14.73
2018-06-01T22:46:45.866Z,12.88
2018-06-01T22:49:13.461Z,11.88
2018-06-01T22:51:41.054Z,13.38
2018-06-01T22:54:08.663Z,12.70
2018-06-01T22:56:36.989Z,15.18
2018-06-01T22:59:04.558Z,11.12
2018-06-01T23:01:32.129Z,10.88
2018-06-01T23:03:59.722Z,12.40
2018-06-01T23:06:28.077Z,9.27
2018-06-01T23:08:55.681Z,12.20
2018-06-01T23:11:23.279Z,12.07
2018-06-01T23:13:50.983Z,11.85
2018-06-01T23:16:19.388Z,12.55
2018-06-01T23:18:46.978Z,11.25
2018-06-01T23:21:14.542Z,8.98
2018-06-01T23:23:42.132Z,13.18
2018-06-01T23:26:09.683Z,12.23
2018-06-01T23:28:37.260Z,12.77
2018-06-01T23:31:05.580Z,13.45
2018-06-01T23:33:33.173Z,12.27
2018-06-01T23:36:00.741Z,15.10
2018-06-01T23:38:28.308Z,14.48
2018-06-01T23:40:55.869Z,13.90
2018-06-01T23:43:23.466Z,13.57
2018-06-01T23:45:51.037Z,13.50
2018-06-01T23:48:18.655Z,13.77
2018-06-01T23:50:47.002Z,14.38
2018-06-01T23:53:14.583Z,14.35
2018-06-01T23:55:42.165Z,12.88
2018-06-01T23:58:10.521Z,12.75
